Time,TemperatureF,DewpointF,PressureIn,WindDirection,WindDirectionDegrees,WindSpeedMPH,WindSpeedGustMPH,Humidity,HourlyPrecipIn,Conditions,Clouds,dailyrainin,SoftwareType,DateUTC
2013-02-16 00:04:00,6.2,-0.6,30.27,SW,225,0.0,3.0,73,0.00,,,-99.99,WeatherLink 5.7,2013-02-16 06:04:00,
2013-02-16 00:34:00,5.4,-1.1,30.27,SW,225,0.0,2.0,74,0.00,,,-99.99,WeatherLink 5.7,2013-02-16 06:34:00,
2013-02-16 01:04:00,4.5,-1.7,30.27,North,-999,0.0,2.0,75,0.00,,,-99.99,WeatherLink 5.7,2013-02-16 07:04:00,
2013-02-16 01:34:00,3.6,-2.3,30.27,North,-999,0.0,0.0,76,0.00,,,-99.99,WeatherLink 5.7,2013-02-16 07:34:00,
2013-02-16 02:04:00,3.1,-2.2,30.27,SW,225,0.0,3.0,78,0.00,,,-99.99,WeatherLink 5.7,2013-02-16 08:04:00,
2013-02-16 02:34:00,3.2,-1.8,30.26,SW,225,0.0,3.0,79,0.00,,,-99.99,WeatherLink 5.7,2013-02-16 08:34:00,
2013-02-16 03:04:00,3.4,-1.9,30.25,SW,225,0.0,3.0,78,0.00,,,-99.99,WeatherLink 5.7,2013-02-16 09:04:00,
2013-02-16 03:30:00,3.0,-2.3,30.25,SW,225,0.0,3.0,78,0.00,,,-99.99,WeatherLink 5.7,2013-02-16 09:30:00,
2013-02-16 03:34:00,3.0,-2.3,30.25,SW,225,0.0,3.0,78,0.00,,,-99.99,WeatherLink 5.7,2013-02-16 09:34:00,
2013-02-16 04:00:00,1.9,-3.7,30.24,SW,225,0.0,1.0,77,0.00,,,-99.99,WeatherLink 5.7,2013-02-16 10:00:00,
2013-02-16 04:30:00,0.8,-4.5,30.24,North,-999,0.0,0.0,78,0.00,,,-99.99,WeatherLink 5.7,2013-02-16 10:30:00,
2013-02-16 05:05:00,0.0,-5.0,30.23,North,-999,0.0,0.0,79,0.00,,,-99.99,WeatherLink 5.7,2013-02-16 11:05:00,
2013-02-16 05:34:00,0.1,-4.3,30.23,North,-999,0.0,2.0,81,0.00,,,-99.99,WeatherLink 5.7,2013-02-16 11:34:00,
2013-02-16 06:04:00,1.0,-3.2,30.23,SW,225,0.0,2.0,82,0.00,,,-99.99,WeatherLink 5.7,2013-02-16 12:04:00,
2013-02-16 06:34:00,1.9,-2.3,30.23,North,-999,0.0,0.0,82,0.00,,,-99.99,WeatherLink 5.7,2013-02-16 12:34:00,
2013-02-16 07:04:00,2.3,-1.9,30.23,SW,225,0.0,2.0,82,0.00,,,-99.99,WeatherLink 5.7,2013-02-16 13:04:00,
2013-02-16 07:34:00,2.4,-1.8,30.23,North,-999,0.0,0.0,82,0.00,,,-99.99,WeatherLink 5.7,2013-02-16 13:34:00,
2013-02-16 08:04:00,2.6,-1.6,30.22,North,-999,0.0,0.0,82,0.00,,,-99.99,WeatherLink 5.7,2013-02-16 14:04:00,
2013-02-16 08:34:00,3.3,-0.4,30.22,SW,225,0.0,3.0,84,0.00,,,-99.99,WeatherLink 5.7,2013-02-16 14:34:00,
2013-02-16 09:04:00,5.1,0.5,30.23,SW,225,0.0,3.0,81,0.00,,,-99.99,WeatherLink 5.7,2013-02-16 15:04:00,
2013-02-16 09:34:00,6.8,1.9,30.22,SW,225,0.0,3.0,80,0.00,,,-99.99,WeatherLink 5.7,2013-02-16 15:34:00,
2013-02-16 10:04:00,8.4,2.4,30.22,WSW,247,1.0,4.0,76,0.00,,,-99.99,WeatherLink 5.7,2013-02-16 16:04:00,
2013-02-16 10:34:00,9.4,2.8,30.22,NNW,337,0.0,3.0,74,0.00,,,-99.99,WeatherLink 5.7,2013-02-16 16:34:00,
2013-02-16 11:04:00,10.5,3.3,30.21,NNW,337,0.0,4.0,72,0.00,,,-99.99,WeatherLink 5.7,2013-02-16 17:04:00,
2013-02-16 11:34:00,11.6,3.7,30.21,WSW,247,1.0,5.0,70,0.00,,,-99.99,WeatherLink 5.7,2013-02-16 17:34:00,
2013-02-16 12:04:00,12.2,4.3,30.20,NNW,337,0.0,4.0,70,0.00,,,-99.99,WeatherLink 5.7,2013-02-16 18:04:00,
2013-02-16 12:34:00,13.2,4.6,30.20,NNW,337,1.0,5.0,68,0.00,,,-99.99,WeatherLink 5.7,2013-02-16 18:34:00,
2013-02-16 13:04:00,14.5,5.5,30.19,WSW,247,1.0,5.0,67,0.00,,,-99.99,WeatherLink 5.7,2013-02-16 19:04:00,
2013-02-16 13:34:00,15.5,6.5,30.18,East,90,1.0,5.0,67,0.00,,,-99.99,WeatherLink 5.7,2013-02-16 19:34:00,
2013-02-16 14:04:00,16.9,6.5,30.17,East,90,1.0,7.0,63,0.00,,,-99.99,WeatherLink 5.7,2013-02-16 20:04:00,
2013-02-16 14:34:00,17.0,7.3,30.15,ESE,112,1.0,5.0,65,0.00,,,-99.99,WeatherLink 5.7,2013-02-16 20:34:00,
2013-02-16 15:04:00,17.5,6.7,30.15,NE,45,1.0,5.0,62,0.00,,,-99.99,WeatherLink 5.7,2013-02-16 21:04:00,
2013-02-16 15:35:00,18.0,7.2,30.15,NE,45,1.0,3.0,62,0.00,,,-99.99,WeatherLink 5.7,2013-02-16 21:35:00,
2013-02-16 16:04:00,18.9,7.7,30.15,ENE,67,1.0,4.0,61,0.00,,,-99.99,WeatherLink 5.7,2013-02-16 22:04:00,
2013-02-16 16:34:00,18.6,7.4,30.16,ENE,67,1.0,4.0,61,0.00,,,-99.99,WeatherLink 5.7,2013-02-16 22:34:00,
2013-02-16 17:04:00,17.9,7.1,30.16,ENE,67,1.0,4.0,62,0.00,,,-99.99,WeatherLink 5.7,2013-02-16 23:04:00,
2013-02-16 17:34:00,17.2,7.8,30.16,ENE,67,1.0,3.0,66,0.00,,,-99.99,WeatherLink 5.7,2013-02-16 23:34:00,
2013-02-16 18:04:00,15.8,6.8,30.17,ENE,67,1.0,3.0,67,0.00,,,-99.99,WeatherLink 5.7,2013-02-17 00:04:00,
2013-02-16 18:34:00,14.5,5.9,30.17,ENE,67,1.0,3.0,68,0.00,,,-99.99,WeatherLink 5.7,2013-02-17 00:34:00,
2013-02-16 19:04:00,13.4,5.1,30.17,ENE,67,1.0,3.0,69,0.00,,,-99.99,WeatherLink 5.7,2013-02-17 01:04:00,
2013-02-16 19:35:00,12.2,4.6,30.16,ENE,67,1.0,3.0,71,0.00,,,-99.99,WeatherLink 5.7,2013-02-17 01:35:00,
2013-02-16 20:04:00,10.6,3.6,30.17,ENE,67,0.0,2.0,73,0.00,,,-99.99,WeatherLink 5.7,2013-02-17 02:04:00,
2013-02-16 20:34:00,9.1,2.5,30.17,North,-999,0.0,0.0,74,0.00,,,-99.99,WeatherLink 5.7,2013-02-17 02:34:00,
2013-02-16 21:05:00,7.6,1.3,30.17,North,-999,0.0,0.0,75,0.00,,,-99.99,WeatherLink 5.7,2013-02-17 03:05:00,
2013-02-16 21:34:00,6.5,0.5,30.17,North,-999,0.0,0.0,76,0.00,,,-99.99,WeatherLink 5.7,2013-02-17 03:34:00,
2013-02-16 22:05:00,5.2,-0.7,30.16,North,-999,0.0,0.0,76,0.00,,,-99.99,WeatherLink 5.7,2013-02-17 04:05:00,
2013-02-16 22:34:00,4.2,-1.7,30.16,ENE,67,0.0,1.0,76,0.00,,,-99.99,WeatherLink 5.7,2013-02-17 04:34:00,
2013-02-16 23:04:00,3.3,-2.0,30.15,ENE,67,0.0,1.0,78,0.00,,,-99.99,WeatherLink 5.7,2013-02-17 05:04:00,
2013-02-16 23:34:00,2.6,-2.4,30.14,North,-999,0.0,0.0,79,0.00,,,-99.99,WeatherLink 5.7,2013-02-17 05:34:00,